Pamlico — WX6900 — position and weather

sailwx.info

Track history (hours):
 
Tides and Currents Weather Stations Pressure Air Temp Water Temp Dewpoint Dewpoint Depression Visibility Wind Speed Wind Dir Waves Ship Positions

Pamlico

Owner: PCS Phosphate, AURORA, NC. More information available from US FCC via Universal Licensing System and Coast Guard Vessel Documentation Center.

Last reported at 2017-Nov-19 10:58 UTC. Time now 2017-Nov-20 17:43 UTC.
Position N 34°59' W 076°42'.

Length 30 m; draft 2 m.

Type: Tug. MMSI: 367361220.

Date/timePositionNaut miles runAvg speedWind from/ knotsBaromVisibWave heightAir tempDewpointWater temp
2017-Nov-19 10:58N 34°59' W 076°42'3 7.2
2017-Nov-19 10:30N 34°56' W 076°39'3 6.4
2017-Nov-19 10:00N 34°53' W 076°41'3 6.4
2017-Nov-19 09:30N 34°50' W 076°41'3 6.3
2017-Nov-19 09:00N 34°47' W 076°41'3 6.6
2017-Nov-19 08:30N 34°44' W 076°42'0 0.7
2017-Nov-19 08:00N 34°43' W 076°42'0 0.0
2017-Nov-19 07:30N 34°43' W 076°42'0 0.0
2017-Nov-19 07:01N 34°43' W 076°42'0 0.0
2017-Nov-19 06:30N 34°43' W 076°42'0 0.1
2017-Nov-19 06:00N 34°43' W 076°42'0 0.1
2017-Nov-19 05:30N 34°43' W 076°42'0 0.0
2017-Nov-19 05:00N 34°43' W 076°42'2 4.8
2017-Nov-19 04:30N 34°46' W 076°40'3 5.8
2017-Nov-19 04:00N 34°48' W 076°41'2 4.8
2017-Nov-19 03:30N 34°51' W 076°41'2 4.7
2017-Nov-19 03:00N 34°53' W 076°41'2 4.4
2017-Nov-19 02:29N 34°55' W 076°40'5 0.1
2017-Nov-17 00:31N 34°60' W 076°41'0 8.0
2017-Nov-17 00:28N 34°59' W 076°41'4 7.0
2017-Nov-16 23:58N 34°56' W 076°39'3 7.4
2017-Nov-16 23:30N 34°53' W 076°41'4 8.1
2017-Nov-16 23:00N 34°49' W 076°41'4 7.9
2017-Nov-16 22:30N 34°45' W 076°40'2 4.3
2017-Nov-16 22:00N 34°43' W 076°42'0 0.0
2017-Nov-16 21:30N 34°43' W 076°42'0 0.0
2017-Nov-16 21:00N 34°43' W 076°42'0 0.0
2017-Nov-16 20:30N 34°43' W 076°42'0 0.1
2017-Nov-16 20:00N 34°43' W 076°42'0 0.1
2017-Nov-16 19:30N 34°43' W 076°42'0 0.0
2017-Nov-16 19:00N 34°43' W 076°42'0 0.0
2017-Nov-16 18:30N 34°43' W 076°42'0 0.0
2017-Nov-16 18:00N 34°43' W 076°42'0 0.0
2017-Nov-16 17:30N 34°43' W 076°42'0 0.0
2017-Nov-16 17:00N 34°43' W 076°42'0 0.0
2017-Nov-16 16:30N 34°43' W 076°42'0 0.0
2017-Nov-16 16:00N 34°43' W 076°42'0 0.0
2017-Nov-16 15:30N 34°43' W 076°42'0 0.0
2017-Nov-16 15:01N 34°43' W 076°42'0 0.0
2017-Nov-16 14:30N 34°43' W 076°42'0 0.0
2017-Nov-16 14:00N 34°43' W 076°42'0 0.0
2017-Nov-16 13:30N 34°43' W 076°42'0 0.0
2017-Nov-16 13:00N 34°43' W 076°42'0 0.0
2017-Nov-16 12:30N 34°43' W 076°42'0 0.0
2017-Nov-16 12:00N 34°43' W 076°42'0 0.0
2017-Nov-16 11:30N 34°43' W 076°42'0 0.0
2017-Nov-16 11:00N 34°43' W 076°42'0 0.0
2017-Nov-16 10:30N 34°43' W 076°42'0 0.0
2017-Nov-16 10:00N 34°43' W 076°42'0 0.0
2017-Nov-16 09:30N 34°43' W 076°42'0 0.0
2017-Nov-16 09:00N 34°43' W 076°42'0 0.0
2017-Nov-16 08:30N 34°43' W 076°42'0 0.0
2017-Nov-16 08:00N 34°43' W 076°42'0 0.0
2017-Nov-16 07:30N 34°43' W 076°42'0 0.0
2017-Nov-16 07:00N 34°43' W 076°42'0 0.0
2017-Nov-16 06:29N 34°43' W 076°42'0 0.0
2017-Nov-16 06:00N 34°43' W 076°42'0 0.0
2017-Nov-16 05:30N 34°43' W 076°42'0 0.0
2017-Nov-16 05:00N 34°43' W 076°42'0 0.0
2017-Nov-16 04:30N 34°43' W 076°42'0 0.0
2017-Nov-16 04:00N 34°43' W 076°42'0 0.0
2017-Nov-16 03:30N 34°43' W 076°42'0 0.0
2017-Nov-16 03:00N 34°43' W 076°42'0 0.0
2017-Nov-16 02:30N 34°43' W 076°42'0 0.0
2017-Nov-16 02:01N 34°43' W 076°42'0 0.0
2017-Nov-16 01:30N 34°43' W 076°42'0 0.0
2017-Nov-16 01:00N 34°43' W 076°42'0 0.0
2017-Nov-16 00:30N 34°43' W 076°42'0 0.0
2017-Nov-16 00:00N 34°43' W 076°42'0 0.0
2017-Nov-15 23:30N 34°43' W 076°42'0 0.0
2017-Nov-15 23:00N 34°43' W 076°42'0 0.1
2017-Nov-15 22:30N 34°43' W 076°42'0 0.0
2017-Nov-15 22:00N 34°43' W 076°42'0 0.0
2017-Nov-15 21:30N 34°43' W 076°42'0 0.0
2017-Nov-15 21:00N 34°43' W 076°42'0 0.0
2017-Nov-15 20:30N 34°43' W 076°42'0 0.0
2017-Nov-15 20:01N 34°43' W 076°42'0 0.0
2017-Nov-15 19:30N 34°43' W 076°42'0 0.0
2017-Nov-15 19:00N 34°43' W 076°42'0 0.0
2017-Nov-15 18:30N 34°43' W 076°42'0 0.0
2017-Nov-15 18:00N 34°43' W 076°42'0 0.0
2017-Nov-15 17:30N 34°43' W 076°42'0 0.0
2017-Nov-15 17:00N 34°43' W 076°42'0 0.0
2017-Nov-15 16:31N 34°43' W 076°42'0 0.0
2017-Nov-15 16:01N 34°43' W 076°42'0 0.0
2017-Nov-15 15:30N 34°43' W 076°42'0 0.0
2017-Nov-15 15:00N 34°43' W 076°42'0 0.0
2017-Nov-15 14:30N 34°43' W 076°42'0 0.0
2017-Nov-15 14:01N 34°43' W 076°42'0 0.4
2017-Nov-15 13:30N 34°44' W 076°42'0 0.0
2017-Nov-15 13:00N 34°44' W 076°42'0 0.0
2017-Nov-15 12:30N 34°44' W 076°42'0 0.0
2017-Nov-15 12:00N 34°44' W 076°42'0 0.0
2017-Nov-15 11:30N 34°44' W 076°42'0 0.0
2017-Nov-15 11:00N 34°44' W 076°42'0 0.0
2017-Nov-15 10:30N 34°44' W 076°42'0 0.0
2017-Nov-15 10:00N 34°44' W 076°42'0 0.0
2017-Nov-15 09:30N 34°44' W 076°42'0 0.0
2017-Nov-15 09:00N 34°44' W 076°42'0 0.0
2017-Nov-15 08:30N 34°44' W 076°42'0 0.0
2017-Nov-15 08:00N 34°44' W 076°42'0 0.0
2017-Nov-15 07:30N 34°44' W 076°42'0 0.0
2017-Nov-15 07:00N 34°44' W 076°42'0 0.0
2017-Nov-15 06:30N 34°44' W 076°42'0 0.0
2017-Nov-15 06:00N 34°44' W 076°42'0 0.0
2017-Nov-15 05:30N 34°44' W 076°42'0 0.5
2017-Nov-15 05:00N 34°43' W 076°42'0 0.0
2017-Nov-15 04:30N 34°43' W 076°42'0 0.2
2017-Nov-15 04:01N 34°43' W 076°42'2 4.2
2017-Nov-15 03:30N 34°45' W 076°40'3 6.4
2017-Nov-15 03:00N 34°48' W 076°41'3 6.8
2017-Nov-15 02:30N 34°52' W 076°41'3 6.1
2017-Nov-15 01:58N 34°55' W 076°40'3 5.9
2017-Nov-15 01:30N 34°57' W 076°41'2 0.1
2017-Nov-14 06:42N 34°56' W 076°39'1 6.6
2017-Nov-14 06:30N 34°55' W 076°40'2 5.1
2017-Nov-14 06:00N 34°53' W 076°42'3 5.1
2017-Nov-14 05:31N 34°50' W 076°41'2 4.8
2017-Nov-14 05:00N 34°48' W 076°41'3 5.8
2017-Nov-14 04:30N 34°45' W 076°41'2 3.7
2017-Nov-14 04:00N 34°43' W 076°42'0 0.1
2017-Nov-14 03:30N 34°43' W 076°42'0 0.0
2017-Nov-14 03:00N 34°43' W 076°42'1 2.8
2017-Nov-14 02:30N 34°44' W 076°41'3 6.4
2017-Nov-14 02:00N 34°48' W 076°41'3 6.6
2017-Nov-14 01:31N 34°51' W 076°41'3 5.8
2017-Nov-14 00:58N 34°54' W 076°41'3 5.6
2017-Nov-14 00:29N 34°57' W 076°40'  
2017-Nov-10 22:24N 35°01' W 076°40'3 6.7
2017-Nov-10 22:00N 34°58' W 076°41'3 6.5
2017-Nov-10 21:30N 34°56' W 076°39'3 6.4
2017-Nov-10 21:00N 34°53' W 076°41'3 6.9
2017-Nov-10 20:30N 34°50' W 076°41'3 6.9
2017-Nov-10 20:00N 34°46' W 076°41'3 5.6
2017-Nov-10 19:30N 34°43' W 076°42'0 0.1
2017-Nov-10 19:01N 34°43' W 076°42'0 0.0
2017-Nov-10 18:31N 34°43' W 076°42'2 3.5
2017-Nov-10 18:00N 34°45' W 076°41'3 5.8
2017-Nov-10 17:30N 34°48' W 076°41'3 5.6
2017-Nov-10 17:00N 34°51' W 076°41'3 5.9
2017-Nov-10 16:30N 34°53' W 076°41'3 6.1
2017-Nov-10 15:59N 34°56' W 076°39'  
Track history (hours):
 
Tides and Currents Weather Stations Pressure Air Temp Water Temp Dewpoint Dewpoint Depression Visibility Wind Speed Wind Dir Waves Ship Positions

Pamlico

Owner: PCS Phosphate, AURORA, NC. More information available from US FCC via Universal Licensing System and Coast Guard Vessel Documentation Center.

Last reported at 2017-Nov-19 10:58 UTC. Time now 2017-Nov-20 17:43 UTC.
Position N 34°59' W 076°42'.

Length 30 m; draft 2 m.

Type: Tug. MMSI: 367361220.

Date/timePositionNaut miles runAvg speedWind from/ knotsBaromVisibWave heightAir tempDewpointWater temp
2017-Nov-19 10:58N 34°59' W 076°42'3 7.2
2017-Nov-19 10:30N 34°56' W 076°39'3 6.4
2017-Nov-19 10:00N 34°53' W 076°41'3 6.4
2017-Nov-19 09:30N 34°50' W 076°41'3 6.3
2017-Nov-19 09:00N 34°47' W 076°41'3 6.6
2017-Nov-19 08:30N 34°44' W 076°42'0 0.7
2017-Nov-19 08:00N 34°43' W 076°42'0 0.0
2017-Nov-19 07:30N 34°43' W 076°42'0 0.0
2017-Nov-19 07:01N 34°43' W 076°42'0 0.0
2017-Nov-19 06:30N 34°43' W 076°42'0 0.1
2017-Nov-19 06:00N 34°43' W 076°42'0 0.1
2017-Nov-19 05:30N 34°43' W 076°42'0 0.0
2017-Nov-19 05:00N 34°43' W 076°42'2 4.8
2017-Nov-19 04:30N 34°46' W 076°40'3 5.8
2017-Nov-19 04:00N 34°48' W 076°41'2 4.8
2017-Nov-19 03:30N 34°51' W 076°41'2 4.7
2017-Nov-19 03:00N 34°53' W 076°41'2 4.4
2017-Nov-19 02:29N 34°55' W 076°40'5 0.1
2017-Nov-17 00:31N 34°60' W 076°41'0 8.0
2017-Nov-17 00:28N 34°59' W 076°41'4 7.0
2017-Nov-16 23:58N 34°56' W 076°39'3 7.4
2017-Nov-16 23:30N 34°53' W 076°41'4 8.1
2017-Nov-16 23:00N 34°49' W 076°41'4 7.9
2017-Nov-16 22:30N 34°45' W 076°40'2 4.3
2017-Nov-16 22:00N 34°43' W 076°42'0 0.0
2017-Nov-16 21:30N 34°43' W 076°42'0 0.0
2017-Nov-16 21:00N 34°43' W 076°42'0 0.0
2017-Nov-16 20:30N 34°43' W 076°42'0 0.1
2017-Nov-16 20:00N 34°43' W 076°42'0 0.1
2017-Nov-16 19:30N 34°43' W 076°42'0 0.0
2017-Nov-16 19:00N 34°43' W 076°42'0 0.0
2017-Nov-16 18:30N 34°43' W 076°42'0 0.0
2017-Nov-16 18:00N 34°43' W 076°42'0 0.0
2017-Nov-16 17:30N 34°43' W 076°42'0 0.0
2017-Nov-16 17:00N 34°43' W 076°42'0 0.0
2017-Nov-16 16:30N 34°43' W 076°42'0 0.0
2017-Nov-16 16:00N 34°43' W 076°42'0 0.0
2017-Nov-16 15:30N 34°43' W 076°42'0 0.0
2017-Nov-16 15:01N 34°43' W 076°42'0 0.0
2017-Nov-16 14:30N 34°43' W 076°42'0 0.0
2017-Nov-16 14:00N 34°43' W 076°42'0 0.0
2017-Nov-16 13:30N 34°43' W 076°42'0 0.0
2017-Nov-16 13:00N 34°43' W 076°42'0 0.0
2017-Nov-16 12:30N 34°43' W 076°42'0 0.0
2017-Nov-16 12:00N 34°43' W 076°42'0 0.0
2017-Nov-16 11:30N 34°43' W 076°42'0 0.0
2017-Nov-16 11:00N 34°43' W 076°42'0 0.0
2017-Nov-16 10:30N 34°43' W 076°42'0 0.0
2017-Nov-16 10:00N 34°43' W 076°42'0 0.0
2017-Nov-16 09:30N 34°43' W 076°42'0 0.0
2017-Nov-16 09:00N 34°43' W 076°42'0 0.0
2017-Nov-16 08:30N 34°43' W 076°42'0 0.0
2017-Nov-16 08:00N 34°43' W 076°42'0 0.0
2017-Nov-16 07:30N 34°43' W 076°42'0 0.0
2017-Nov-16 07:00N 34°43' W 076°42'0 0.0
2017-Nov-16 06:29N 34°43' W 076°42'0 0.0
2017-Nov-16 06:00N 34°43' W 076°42'0 0.0
2017-Nov-16 05:30N 34°43' W 076°42'0 0.0
2017-Nov-16 05:00N 34°43' W 076°42'0 0.0
2017-Nov-16 04:30N 34°43' W 076°42'0 0.0
2017-Nov-16 04:00N 34°43' W 076°42'0 0.0
2017-Nov-16 03:30N 34°43' W 076°42'0 0.0
2017-Nov-16 03:00N 34°43' W 076°42'0 0.0
2017-Nov-16 02:30N 34°43' W 076°42'0 0.0
2017-Nov-16 02:01N 34°43' W 076°42'0 0.0
2017-Nov-16 01:30N 34°43' W 076°42'0 0.0
2017-Nov-16 01:00N 34°43' W 076°42'0 0.0
2017-Nov-16 00:30N 34°43' W 076°42'0 0.0
2017-Nov-16 00:00N 34°43' W 076°42'0 0.0
2017-Nov-15 23:30N 34°43' W 076°42'0 0.0
2017-Nov-15 23:00N 34°43' W 076°42'0 0.1
2017-Nov-15 22:30N 34°43' W 076°42'0 0.0
2017-Nov-15 22:00N 34°43' W 076°42'0 0.0
2017-Nov-15 21:30N 34°43' W 076°42'0 0.0
2017-Nov-15 21:00N 34°43' W 076°42'0 0.0
2017-Nov-15 20:30N 34°43' W 076°42'0 0.0
2017-Nov-15 20:01N 34°43' W 076°42'0 0.0
2017-Nov-15 19:30N 34°43' W 076°42'0 0.0
2017-Nov-15 19:00N 34°43' W 076°42'0 0.0
2017-Nov-15 18:30N 34°43' W 076°42'0 0.0
2017-Nov-15 18:00N 34°43' W 076°42'0 0.0
2017-Nov-15 17:30N 34°43' W 076°42'0 0.0
2017-Nov-15 17:00N 34°43' W 076°42'0 0.0
2017-Nov-15 16:31N 34°43' W 076°42'0 0.0
2017-Nov-15 16:01N 34°43' W 076°42'0 0.0
2017-Nov-15 15:30N 34°43' W 076°42'0 0.0
2017-Nov-15 15:00N 34°43' W 076°42'0 0.0
2017-Nov-15 14:30N 34°43' W 076°42'0 0.0
2017-Nov-15 14:01N 34°43' W 076°42'0 0.4
2017-Nov-15 13:30N 34°44' W 076°42'0 0.0
2017-Nov-15 13:00N 34°44' W 076°42'0 0.0
2017-Nov-15 12:30N 34°44' W 076°42'0 0.0
2017-Nov-15 12:00N 34°44' W 076°42'0 0.0
2017-Nov-15 11:30N 34°44' W 076°42'0 0.0
2017-Nov-15 11:00N 34°44' W 076°42'0 0.0
2017-Nov-15 10:30N 34°44' W 076°42'0 0.0
2017-Nov-15 10:00N 34°44' W 076°42'0 0.0
2017-Nov-15 09:30N 34°44' W 076°42'0 0.0
2017-Nov-15 09:00N 34°44' W 076°42'0 0.0
2017-Nov-15 08:30N 34°44' W 076°42'0 0.0
2017-Nov-15 08:00N 34°44' W 076°42'0 0.0
2017-Nov-15 07:30N 34°44' W 076°42'0 0.0
2017-Nov-15 07:00N 34°44' W 076°42'0 0.0
2017-Nov-15 06:30N 34°44' W 076°42'0 0.0
2017-Nov-15 06:00N 34°44' W 076°42'0 0.0
2017-Nov-15 05:30N 34°44' W 076°42'0 0.5
2017-Nov-15 05:00N 34°43' W 076°42'0 0.0
2017-Nov-15 04:30N 34°43' W 076°42'0 0.2
2017-Nov-15 04:01N 34°43' W 076°42'2 4.2
2017-Nov-15 03:30N 34°45' W 076°40'3 6.4
2017-Nov-15 03:00N 34°48' W 076°41'3 6.8
2017-Nov-15 02:30N 34°52' W 076°41'3 6.1
2017-Nov-15 01:58N 34°55' W 076°40'3 5.9
2017-Nov-15 01:30N 34°57' W 076°41'2 0.1
2017-Nov-14 06:42N 34°56' W 076°39'1 6.6
2017-Nov-14 06:30N 34°55' W 076°40'2 5.1
2017-Nov-14 06:00N 34°53' W 076°42'3 5.1
2017-Nov-14 05:31N 34°50' W 076°41'2 4.8
2017-Nov-14 05:00N 34°48' W 076°41'3 5.8
2017-Nov-14 04:30N 34°45' W 076°41'2 3.7
2017-Nov-14 04:00N 34°43' W 076°42'0 0.1
2017-Nov-14 03:30N 34°43' W 076°42'0 0.0
2017-Nov-14 03:00N 34°43' W 076°42'1 2.8
2017-Nov-14 02:30N 34°44' W 076°41'3 6.4
2017-Nov-14 02:00N 34°48' W 076°41'3 6.6
2017-Nov-14 01:31N 34°51' W 076°41'3 5.8
2017-Nov-14 00:58N 34°54' W 076°41'3 5.6
2017-Nov-14 00:29N 34°57' W 076°40'  
2017-Nov-10 22:24N 35°01' W 076°40'3 6.7
2017-Nov-10 22:00N 34°58' W 076°41'3 6.5
2017-Nov-10 21:30N 34°56' W 076°39'3 6.4
2017-Nov-10 21:00N 34°53' W 076°41'3 6.9
2017-Nov-10 20:30N 34°50' W 076°41'3 6.9
2017-Nov-10 20:00N 34°46' W 076°41'3 5.6
2017-Nov-10 19:30N 34°43' W 076°42'0 0.1
2017-Nov-10 19:01N 34°43' W 076°42'0 0.0
2017-Nov-10 18:31N 34°43' W 076°42'2 3.5
2017-Nov-10 18:00N 34°45' W 076°41'3 5.8
2017-Nov-10 17:30N 34°48' W 076°41'3 5.6
2017-Nov-10 17:00N 34°51' W 076°41'3 5.9
2017-Nov-10 16:30N 34°53' W 076°41'3 6.1
2017-Nov-10 15:59N 34°56' W 076°39'  

Dump ship's entire track history